createdAt,value
2018-06-21T00:00:23.528Z,0.00
2018-06-21T00:01:23.553Z,0.00
2018-06-21T00:02:23.570Z,0.00
2018-06-21T00:03:23.591Z,0.00
2018-06-21T00:04:23.618Z,0.00
2018-06-21T00:05:23.642Z,0.00
2018-06-21T00:06:23.678Z,0.00
2018-06-21T00:07:23.695Z,0.00
2018-06-21T00:08:23.712Z,0.00
2018-06-21T00:09:23.740Z,0.00
2018-06-21T00:10:23.764Z,0.00
2018-06-21T00:11:23.784Z,0.00
2018-06-21T00:12:23.810Z,0.00
2018-06-21T00:13:23.835Z,0.00
2018-06-21T00:14:23.852Z,0.00
2018-06-21T00:15:23.879Z,0.00
2018-06-21T00:16:23.903Z,0.00
2018-06-21T00:17:23.925Z,0.00
2018-06-21T00:18:23.979Z,0.00
2018-06-21T00:19:23.973Z,0.00
2018-06-21T00:20:23.993Z,0.00
2018-06-21T00:21:24.017Z,0.00
2018-06-21T00:22:24.045Z,0.00
2018-06-21T00:23:24.068Z,0.00
2018-06-21T00:24:24.088Z,0.00
2018-06-21T00:25:24.111Z,0.00
2018-06-21T00:26:24.138Z,0.00
2018-06-21T00:27:24.164Z,0.00
2018-06-21T00:28:24.187Z,0.00
2018-06-21T00:29:24.322Z,0.00
2018-06-21T00:30:24.234Z,0.00
2018-06-21T00:31:24.256Z,0.00
2018-06-21T00:32:24.279Z,0.00
2018-06-21T00:33:24.304Z,0.00
2018-06-21T00:34:24.323Z,0.00
2018-06-21T00:35:24.347Z,0.00
2018-06-21T00:36:24.371Z,0.00
2018-06-21T00:37:24.396Z,0.00
2018-06-21T00:38:24.422Z,0.00
2018-06-21T00:39:24.447Z,0.00
2018-06-21T00:40:24.466Z,0.00
2018-06-21T00:41:24.488Z,0.00
2018-06-21T00:42:24.516Z,0.00
2018-06-21T00:43:24.541Z,0.00
2018-06-21T00:44:24.562Z,0.00
2018-06-21T00:45:24.591Z,0.00
2018-06-21T00:46:24.604Z,0.00
2018-06-21T00:47:24.634Z,0.00
2018-06-21T00:48:24.660Z,0.00
2018-06-21T00:49:24.676Z,0.00
2018-06-21T00:50:24.703Z,0.00
2018-06-21T00:51:24.721Z,0.00
2018-06-21T00:52:24.743Z,0.00
2018-06-21T00:53:24.772Z,0.00
2018-06-21T00:54:24.802Z,0.00
2018-06-21T00:55:24.819Z,0.00
2018-06-21T00:56:24.844Z,0.00
2018-06-21T00:57:24.864Z,0.00
2018-06-21T00:58:24.883Z,0.00
2018-06-21T00:59:24.911Z,0.00
2018-06-21T01:00:24.934Z,0.00
2018-06-21T01:01:24.962Z,0.00
2018-06-21T01:02:24.985Z,0.00
2018-06-21T01:03:25.006Z,0.00
2018-06-21T01:04:25.032Z,0.00
2018-06-21T01:05:25.078Z,0.00
2018-06-21T01:06:25.077Z,0.00
2018-06-21T01:07:25.109Z,0.00
2018-06-21T01:08:25.124Z,0.00
2018-06-21T01:09:25.146Z,0.00
2018-06-21T01:10:25.167Z,0.00
2018-06-21T01:11:25.195Z,0.00
2018-06-21T01:12:25.221Z,0.00
2018-06-21T01:13:25.239Z,0.00
2018-06-21T01:14:25.262Z,0.00
2018-06-21T01:15:25.283Z,0.00
2018-06-21T01:16:25.307Z,0.00
2018-06-21T01:17:25.335Z,0.00
2018-06-21T01:18:25.360Z,0.00
2018-06-21T01:19:25.379Z,0.00
2018-06-21T01:20:25.403Z,0.00
2018-06-21T01:21:25.429Z,0.00
2018-06-21T01:22:25.453Z,0.00
2018-06-21T01:23:25.477Z,0.00
2018-06-21T01:24:25.495Z,0.00
2018-06-21T01:25:25.565Z,0.00
2018-06-21T01:26:25.540Z,0.00
2018-06-21T01:27:25.568Z,0.00
2018-06-21T01:28:25.591Z,0.00
2018-06-21T01:29:25.610Z,0.00
2018-06-21T01:30:25.635Z,0.00
2018-06-21T01:31:25.660Z,0.00
2018-06-21T01:32:25.682Z,0.00
2018-06-21T01:33:25.710Z,0.00
2018-06-21T01:34:25.734Z,0.00
2018-06-21T01:35:25.751Z,0.00
2018-06-21T01:36:25.775Z,0.00
2018-06-21T01:37:25.802Z,0.00
2018-06-21T01:38:25.825Z,0.00
2018-06-21T01:39:25.851Z,0.00
2018-06-21T01:40:25.873Z,0.00
2018-06-21T01:41:25.894Z,0.00
2018-06-21T01:42:25.917Z,0.00
2018-06-21T01:43:25.943Z,0.00
2018-06-21T01:44:25.967Z,0.00
2018-06-21T01:45:25.986Z,0.00
2018-06-21T01:46:26.010Z,0.00
2018-06-21T01:47:26.032Z,0.00
2018-06-21T01:48:26.053Z,0.00
2018-06-21T01:49:26.082Z,0.00
2018-06-21T01:50:26.106Z,0.00
2018-06-21T01:51:26.127Z,0.00
2018-06-21T01:52:26.150Z,0.00
2018-06-21T01:53:26.176Z,0.00
2018-06-21T01:54:26.202Z,0.00
2018-06-21T01:55:26.223Z,0.00
2018-06-21T01:56:26.248Z,0.00
2018-06-21T01:57:26.265Z,0.00
2018-06-21T01:58:26.288Z,0.00
2018-06-21T01:59:26.318Z,0.00
2018-06-21T02:00:26.342Z,0.00
2018-06-21T02:01:26.360Z,0.00
2018-06-21T02:02:26.384Z,0.00
2018-06-21T02:03:26.405Z,0.00
2018-06-21T02:04:26.428Z,0.00
2018-06-21T02:05:26.459Z,0.00
2018-06-21T02:06:26.478Z,0.00
2018-06-21T02:07:26.501Z,0.00
2018-06-21T02:08:26.523Z,0.00
2018-06-21T02:09:26.550Z,0.00
2018-06-21T02:10:26.573Z,0.00
2018-06-21T02:11:26.603Z,0.00
2018-06-21T02:12:26.621Z,0.00
2018-06-21T02:13:26.643Z,0.00
2018-06-21T02:14:26.661Z,0.00
2018-06-21T02:15:26.689Z,0.00
2018-06-21T02:16:26.712Z,0.00
2018-06-21T02:17:26.731Z,0.00
2018-06-21T02:18:26.762Z,0.00
2018-06-21T02:19:26.778Z,0.00
2018-06-21T02:20:26.804Z,0.00
2018-06-21T02:21:26.838Z,0.00
2018-06-21T02:22:26.856Z,0.00
2018-06-21T02:23:26.878Z,0.00
2018-06-21T02:24:26.894Z,0.00
2018-06-21T02:25:26.924Z,0.00
2018-06-21T02:26:26.946Z,0.00
2018-06-21T02:27:26.974Z,0.00
2018-06-21T02:28:26.994Z,0.00
2018-06-21T02:29:27.015Z,0.00
2018-06-21T02:30:27.037Z,0.00
2018-06-21T02:31:27.067Z,0.00
2018-06-21T02:32:27.088Z,0.00
2018-06-21T02:33:27.107Z,0.00
2018-06-21T02:34:27.141Z,0.00
2018-06-21T02:35:27.153Z,0.00
2018-06-21T02:36:27.175Z,0.00
2018-06-21T02:37:27.211Z,0.00
2018-06-21T02:38:27.224Z,0.00
2018-06-21T02:39:27.248Z,0.00
2018-06-21T02:40:27.276Z,0.00
2018-06-21T02:41:27.297Z,0.00
2018-06-21T02:42:27.321Z,0.00
2018-06-21T02:43:27.344Z,0.00
2018-06-21T02:44:27.371Z,0.00
2018-06-21T02:45:27.402Z,0.00
2018-06-21T02:46:27.409Z,0.00
2018-06-21T02:47:27.438Z,0.00
2018-06-21T02:48:27.460Z,0.00
2018-06-21T02:49:27.479Z,0.00
2018-06-21T02:50:27.503Z,0.00
2018-06-21T02:51:27.529Z,0.00
2018-06-21T02:52:27.551Z,0.00
2018-06-21T02:53:27.577Z,0.00
2018-06-21T02:54:27.601Z,0.00
2018-06-21T02:55:27.619Z,0.00
2018-06-21T02:56:27.642Z,0.00
2018-06-21T02:57:27.671Z,0.00
2018-06-21T02:58:27.697Z,0.00
2018-06-21T02:59:27.718Z,0.00
2018-06-21T03:00:27.741Z,0.00
2018-06-21T03:01:27.763Z,0.00
2018-06-21T03:02:27.785Z,0.00
2018-06-21T03:03:27.808Z,0.00
2018-06-21T03:04:27.832Z,0.00
2018-06-21T03:05:27.860Z,0.00
2018-06-21T03:06:27.881Z,0.00
2018-06-21T03:07:27.904Z,0.00
2018-06-21T03:08:27.927Z,0.00
2018-06-21T03:09:27.950Z,0.00
2018-06-21T03:10:27.972Z,0.00
2018-06-21T03:11:28.000Z,0.00
2018-06-21T03:12:28.023Z,0.00
2018-06-21T03:13:28.043Z,0.00
2018-06-21T03:14:28.067Z,0.00
2018-06-21T03:15:28.088Z,0.00
2018-06-21T03:16:28.109Z,0.00
2018-06-21T03:17:28.144Z,0.00
2018-06-21T03:18:28.160Z,0.00
2018-06-21T03:19:28.180Z,0.00
2018-06-21T03:20:28.202Z,0.00
2018-06-21T03:21:28.229Z,0.00
2018-06-21T03:22:28.255Z,0.00
2018-06-21T03:23:28.279Z,0.00
2018-06-21T03:24:28.301Z,0.00
2018-06-21T03:25:28.321Z,0.00
2018-06-21T03:26:28.344Z,0.00
2018-06-21T03:27:28.373Z,0.00
2018-06-21T03:28:28.394Z,0.00
2018-06-21T03:29:28.412Z,0.00
2018-06-21T03:30:28.435Z,0.00
2018-06-21T03:31:28.462Z,0.00
2018-06-21T03:32:28.485Z,0.00
2018-06-21T03:33:28.512Z,0.00
2018-06-21T03:34:28.534Z,0.00
2018-06-21T03:35:28.554Z,0.00
2018-06-21T03:36:28.577Z,0.00
2018-06-21T03:37:28.604Z,0.00
2018-06-21T03:38:28.630Z,0.00
2018-06-21T03:39:28.649Z,0.00
2018-06-21T03:40:28.672Z,0.00
2018-06-21T03:41:28.691Z,0.00
2018-06-21T03:42:28.717Z,0.00
2018-06-21T03:43:28.744Z,0.00
2018-06-21T03:44:28.767Z,0.00
2018-06-21T03:45:28.788Z,0.00
2018-06-21T03:46:28.810Z,0.00
2018-06-21T03:47:28.832Z,0.00
2018-06-21T03:48:28.853Z,0.00
2018-06-21T03:49:28.884Z,0.00
2018-06-21T03:50:28.906Z,0.00
2018-06-21T03:51:28.923Z,0.00
2018-06-21T03:52:28.946Z,0.00
2018-06-21T03:53:28.974Z,0.00
2018-06-21T03:54:28.997Z,0.00
2018-06-21T03:55:29.024Z,0.00
2018-06-21T03:56:29.045Z,0.00
2018-06-21T03:57:29.064Z,0.00
2018-06-21T03:58:29.100Z,0.00
2018-06-21T03:59:29.112Z,0.00
2018-06-21T04:00:29.136Z,0.00
2018-06-21T04:01:29.156Z,0.00
2018-06-21T04:02:29.178Z,0.00
2018-06-21T04:03:29.204Z,0.00
2018-06-21T04:04:29.227Z,0.00
2018-06-21T04:05:29.336Z,0.00
2018-06-21T04:06:29.277Z,0.00
2018-06-21T04:07:29.295Z,0.00
2018-06-21T04:08:29.377Z,0.00
2018-06-21T04:09:29.345Z,0.00
2018-06-21T04:10:29.369Z,0.00
2018-06-21T04:11:29.397Z,0.00
2018-06-21T04:12:29.414Z,0.00
2018-06-21T04:13:29.436Z,0.00
2018-06-21T04:14:29.460Z,0.00
2018-06-21T04:15:29.484Z,0.00
2018-06-21T04:16:29.508Z,0.00
2018-06-21T04:17:29.537Z,0.00
2018-06-21T04:18:29.550Z,0.00
2018-06-21T04:19:29.579Z,0.00
2018-06-21T04:20:29.602Z,0.00
2018-06-21T04:21:29.625Z,0.00
2018-06-21T04:22:29.649Z,0.00
2018-06-21T04:23:29.668Z,0.00
2018-06-21T04:24:29.692Z,0.00
2018-06-21T04:25:29.718Z,0.00
2018-06-21T04:26:29.739Z,0.00
2018-06-21T04:27:29.762Z,0.00
2018-06-21T04:28:29.787Z,0.00
2018-06-21T04:29:29.804Z,0.00
2018-06-21T04:30:29.828Z,0.00
2018-06-21T04:31:29.857Z,0.00
2018-06-21T04:32:29.885Z,0.00
2018-06-21T04:33:29.898Z,0.00
2018-06-21T04:34:29.921Z,0.00
2018-06-21T04:35:29.946Z,0.00
2018-06-21T04:36:29.966Z,0.00
2018-06-21T04:37:29.994Z,0.00
2018-06-21T04:38:30.018Z,0.00
2018-06-21T04:39:30.043Z,0.00
2018-06-21T04:40:30.059Z,0.00
2018-06-21T04:41:30.086Z,0.00
2018-06-21T04:42:30.108Z,0.00
2018-06-21T04:43:30.135Z,0.00
2018-06-21T04:44:30.160Z,0.00
2018-06-21T04:45:30.176Z,0.00
2018-06-21T04:46:30.200Z,0.00
2018-06-21T04:47:30.226Z,0.00
2018-06-21T04:48:30.247Z,0.00
2018-06-21T04:49:30.268Z,0.00
2018-06-21T04:50:30.290Z,0.00
2018-06-21T04:51:30.314Z,0.00
2018-06-21T04:52:30.338Z,0.00
2018-06-21T04:53:30.364Z,0.00
2018-06-21T04:54:30.389Z,0.00
2018-06-21T04:55:30.408Z,0.00
2018-06-21T04:56:30.430Z,0.00
2018-06-21T04:57:30.459Z,0.00
2018-06-21T04:58:30.481Z,0.00
2018-06-21T04:59:30.501Z,0.00
2018-06-21T05:00:30.527Z,0.00
2018-06-21T05:01:30.545Z,0.00
2018-06-21T05:02:30.568Z,0.00
2018-06-21T05:03:30.597Z,0.00
2018-06-21T05:04:30.620Z,0.00
2018-06-21T05:05:30.645Z,0.00
2018-06-21T05:06:30.663Z,0.00
2018-06-21T05:07:30.684Z,5.63
2018-06-21T05:08:30.709Z,5.63
2018-06-21T05:09:30.734Z,5.63
2018-06-21T05:10:30.756Z,5.63
2018-06-21T05:11:30.780Z,5.63
2018-06-21T05:12:30.802Z,5.63
2018-06-21T05:13:30.836Z,5.63
2018-06-21T05:14:30.847Z,11.25
2018-06-21T05:15:30.871Z,11.25
2018-06-21T05:16:30.893Z,16.88
2018-06-21T05:17:30.920Z,16.88
2018-06-21T05:18:30.942Z,22.50
2018-06-21T05:19:30.961Z,22.50
2018-06-21T05:20:30.983Z,28.13
2018-06-21T05:21:31.010Z,28.13
2018-06-21T05:22:31.035Z,22.50
2018-06-21T05:23:31.060Z,22.50
2018-06-21T05:24:31.081Z,16.88
2018-06-21T05:25:31.101Z,16.88
2018-06-21T05:26:31.124Z,16.88
2018-06-21T05:27:31.156Z,16.88
2018-06-21T05:28:31.172Z,16.88
2018-06-21T05:29:31.193Z,16.88
2018-06-21T05:30:31.223Z,16.88
2018-06-21T05:31:31.237Z,16.88
2018-06-21T05:32:31.261Z,16.88
2018-06-21T05:33:31.287Z,16.88
2018-06-21T05:34:31.311Z,16.88
2018-06-21T05:35:31.332Z,16.88
2018-06-21T05:36:31.354Z,11.25
2018-06-21T05:37:31.457Z,11.25
2018-06-21T05:38:31.408Z,11.25
2018-06-21T05:39:31.427Z,11.25
2018-06-21T05:40:31.450Z,16.88
2018-06-21T05:41:31.468Z,16.88
2018-06-21T05:42:31.491Z,16.88
2018-06-21T05:43:31.519Z,11.25
2018-06-21T05:44:31.635Z,16.88
2018-06-21T05:45:31.560Z,16.88
2018-06-21T05:46:31.584Z,16.88
2018-06-21T05:47:31.609Z,16.88
2018-06-21T05:48:31.633Z,11.25
2018-06-21T05:49:31.659Z,11.25
2018-06-21T05:50:31.685Z,11.25
2018-06-21T05:51:31.699Z,11.25
2018-06-21T05:52:31.722Z,16.88
2018-06-21T05:53:31.751Z,11.25
2018-06-21T05:54:31.773Z,11.25
2018-06-21T05:55:31.800Z,22.50
2018-06-21T05:56:31.830Z,22.50
2018-06-21T05:57:31.840Z,22.50
2018-06-21T05:58:31.865Z,22.50
2018-06-21T05:59:31.899Z,22.50
2018-06-21T06:00:31.912Z,22.50
2018-06-21T06:01:31.932Z,22.50
2018-06-21T06:02:31.957Z,22.50
2018-06-21T06:03:31.977Z,28.13
2018-06-21T06:04:32.076Z,28.13
2018-06-21T06:05:32.027Z,33.75
2018-06-21T06:06:32.054Z,33.75
2018-06-21T06:07:32.075Z,33.75
2018-06-21T06:08:32.101Z,33.75
2018-06-21T06:09:32.122Z,33.75
2018-06-21T06:10:32.145Z,39.38
2018-06-21T06:11:32.168Z,39.38
2018-06-21T06:12:32.189Z,39.38
2018-06-21T06:13:32.209Z,39.38
2018-06-21T06:14:32.238Z,39.38
2018-06-21T06:15:32.260Z,39.38
2018-06-21T06:16:32.283Z,39.38
2018-06-21T06:17:32.302Z,39.38
2018-06-21T06:18:32.325Z,45.00
2018-06-21T06:19:32.349Z,45.00
2018-06-21T06:20:32.368Z,45.00
2018-06-21T06:21:32.396Z,45.00
2018-06-21T06:22:32.418Z,45.00
2018-06-21T06:23:32.440Z,50.63
2018-06-21T06:24:32.464Z,50.63
2018-06-21T06:25:32.489Z,45.00
2018-06-21T06:26:32.512Z,45.00
2018-06-21T06:27:32.534Z,45.00
2018-06-21T06:28:32.561Z,45.00
2018-06-21T06:29:32.575Z,45.00
2018-06-21T06:30:32.598Z,39.38
2018-06-21T06:31:32.625Z,45.00
2018-06-21T06:32:32.647Z,45.00
2018-06-21T06:33:32.668Z,45.00
2018-06-21T06:34:32.712Z,39.38
2018-06-21T06:35:32.715Z,33.75
2018-06-21T06:36:32.737Z,39.38
2018-06-21T06:37:32.764Z,45.00
2018-06-21T06:38:32.788Z,50.63
2018-06-21T06:39:32.805Z,50.63
2018-06-21T06:40:32.968Z,56.25
2018-06-21T06:41:32.855Z,56.25
2018-06-21T06:42:32.878Z,56.25
2018-06-21T06:43:32.903Z,56.25
2018-06-21T06:44:32.933Z,56.25
2018-06-21T06:45:32.946Z,56.25
2018-06-21T06:46:32.969Z,56.25
2018-06-21T06:47:33.004Z,61.88
2018-06-21T06:48:33.020Z,61.88
2018-06-21T06:49:33.037Z,56.25
2018-06-21T06:50:33.060Z,50.63
2018-06-21T06:51:33.082Z,56.25
2018-06-21T06:52:33.104Z,61.88
2018-06-21T06:53:33.131Z,61.88
2018-06-21T06:54:33.180Z,67.50
2018-06-21T06:55:33.179Z,67.50
2018-06-21T06:56:33.198Z,67.50
2018-06-21T06:57:33.227Z,61.88
2018-06-21T06:58:33.250Z,67.50
2018-06-21T06:59:33.282Z,61.88
2018-06-21T07:00:33.293Z,61.88
2018-06-21T07:01:33.317Z,61.88
2018-06-21T07:02:33.336Z,61.88
2018-06-21T07:03:33.364Z,56.25
2018-06-21T07:04:33.386Z,56.25
2018-06-21T07:05:33.406Z,61.88
2018-06-21T07:06:33.429Z,67.50
2018-06-21T07:07:33.456Z,61.88
2018-06-21T07:08:33.634Z,61.88
2018-06-21T07:09:33.506Z,61.88
2018-06-21T07:10:33.532Z,61.88
2018-06-21T07:11:33.547Z,73.13
2018-06-21T07:12:33.570Z,78.75
2018-06-21T07:13:33.597Z,84.38
2018-06-21T07:14:33.659Z,84.38
2018-06-21T07:15:33.647Z,84.38
2018-06-21T07:16:33.668Z,95.63
2018-06-21T07:17:33.687Z,106.88
2018-06-21T07:18:33.713Z,112.50
2018-06-21T07:19:33.735Z,112.50
2018-06-21T07:20:33.758Z,112.50
2018-06-21T07:21:33.788Z,118.13
2018-06-21T07:22:33.809Z,118.13
2018-06-21T07:23:33.830Z,123.75
2018-06-21T07:24:33.856Z,123.75
2018-06-21T07:25:33.880Z,123.75
2018-06-21T07:26:33.902Z,123.75
2018-06-21T07:27:33.928Z,112.50
2018-06-21T07:28:34.014Z,106.88
2018-06-21T07:29:33.971Z,118.13
2018-06-21T07:30:34.006Z,135.00
2018-06-21T07:31:34.017Z,151.88
2018-06-21T07:32:34.039Z,151.88
2018-06-21T07:33:34.123Z,151.88
2018-06-21T07:34:34.094Z,163.13
2018-06-21T07:35:34.114Z,180.00
2018-06-21T07:36:34.135Z,185.63
2018-06-21T07:37:34.165Z,180.00
2018-06-21T07:38:34.187Z,174.38
2018-06-21T07:39:34.206Z,174.38
2018-06-21T07:40:34.239Z,168.75
2018-06-21T07:41:34.256Z,163.13
2018-06-21T07:42:34.285Z,163.13
2018-06-21T07:43:34.306Z,157.50
2018-06-21T07:44:34.330Z,157.50
2018-06-21T07:45:34.347Z,157.50
2018-06-21T07:46:34.379Z,151.88
2018-06-21T07:47:34.443Z,146.25
2018-06-21T07:48:34.429Z,140.63
2018-06-21T07:49:34.453Z,135.00
2018-06-21T07:50:34.483Z,123.75
2018-06-21T07:51:34.502Z,118.13
2018-06-21T07:52:34.521Z,123.75
2018-06-21T07:53:34.574Z,123.75
2018-06-21T07:54:34.575Z,118.13
2018-06-21T07:55:34.597Z,106.88
2018-06-21T07:56:34.623Z,118.13
2018-06-21T07:57:34.643Z,118.13
2018-06-21T07:58:34.669Z,123.75
2018-06-21T07:59:34.699Z,123.75
2018-06-21T08:00:34.717Z,123.75
2018-06-21T08:01:34.740Z,123.75
2018-06-21T08:02:34.767Z,123.75
2018-06-21T08:03:34.785Z,123.75
2018-06-21T08:04:34.940Z,118.13
2018-06-21T08:05:34.912Z,118.13
2018-06-21T08:06:34.862Z,123.75
2018-06-21T08:07:34.884Z,123.75
2018-06-21T08:08:34.911Z,123.75
2018-06-21T08:09:34.934Z,123.75
2018-06-21T08:10:34.959Z,123.75
2018-06-21T08:11:34.986Z,123.75
2018-06-21T08:12:35.015Z,123.75
2018-06-21T08:13:35.031Z,123.75
2018-06-21T08:14:35.056Z,123.75
2018-06-21T08:15:35.096Z,123.75
2018-06-21T08:16:35.106Z,123.75
2018-06-21T08:17:35.137Z,123.75
2018-06-21T08:18:35.151Z,123.75
2018-06-21T08:19:35.187Z,123.75
2018-06-21T08:20:35.202Z,123.75
2018-06-21T08:21:35.234Z,118.13
2018-06-21T08:22:35.251Z,118.13
2018-06-21T08:23:35.271Z,118.13
2018-06-21T08:24:35.346Z,118.13
2018-06-21T08:25:35.325Z,123.75
2018-06-21T08:26:35.350Z,123.75
2018-06-21T08:27:35.374Z,123.75
2018-06-21T08:28:35.413Z,123.75
2018-06-21T08:29:35.419Z,123.75
2018-06-21T08:30:35.441Z,123.75
2018-06-21T08:31:35.474Z,118.13
2018-06-21T08:32:35.495Z,129.38
2018-06-21T08:33:35.520Z,135.00
2018-06-21T08:34:35.541Z,135.00
2018-06-21T08:35:35.562Z,140.63
2018-06-21T08:36:35.588Z,146.25
2018-06-21T08:37:35.618Z,151.88
2018-06-21T08:38:35.677Z,146.25
2018-06-21T08:39:35.662Z,140.63
2018-06-21T08:40:35.690Z,146.25
2018-06-21T08:41:35.713Z,157.50
2018-06-21T08:42:35.740Z,151.88
2018-06-21T08:43:35.766Z,146.25
2018-06-21T08:44:35.788Z,151.88
2018-06-21T08:45:35.807Z,135.00
2018-06-21T08:46:35.839Z,135.00
2018-06-21T08:47:35.861Z,140.63
2018-06-21T08:48:35.882Z,135.00
2018-06-21T08:49:35.914Z,112.50
2018-06-21T08:50:35.937Z,95.63
2018-06-21T08:51:35.952Z,106.88
2018-06-21T08:52:35.978Z,118.13
2018-06-21T08:53:36.010Z,112.50
2018-06-21T08:54:36.034Z,106.88
2018-06-21T08:55:36.056Z,101.25
2018-06-21T08:56:36.076Z,101.25
2018-06-21T08:57:36.103Z,95.63
2018-06-21T08:58:36.211Z,84.38
2018-06-21T08:59:36.168Z,78.75
2018-06-21T09:00:36.182Z,61.88
2018-06-21T09:01:36.237Z,67.50
2018-06-21T09:02:36.225Z,73.13
2018-06-21T09:03:36.254Z,73.13
2018-06-21T09:04:36.274Z,67.50
2018-06-21T09:05:36.296Z,67.50
2018-06-21T09:06:36.323Z,73.13
2018-06-21T09:07:36.348Z,73.13
2018-06-21T09:08:36.397Z,67.50
2018-06-21T09:09:36.470Z,67.50
2018-06-21T09:10:36.423Z,67.50
2018-06-21T09:11:36.445Z,67.50
2018-06-21T09:12:36.469Z,67.50
2018-06-21T09:13:36.529Z,61.88
2018-06-21T09:14:36.523Z,61.88
2018-06-21T09:15:36.546Z,67.50
2018-06-21T09:16:36.585Z,67.50
2018-06-21T09:17:36.600Z,73.13
2018-06-21T09:18:36.615Z,73.13
2018-06-21T09:19:36.645Z,78.75
2018-06-21T09:20:36.668Z,90.00
2018-06-21T09:21:36.698Z,78.75
2018-06-21T09:22:36.744Z,73.13
2018-06-21T09:23:36.739Z,73.13
2018-06-21T09:24:36.765Z,73.13
2018-06-21T09:25:36.798Z,90.00
2018-06-21T09:26:36.816Z,118.13
2018-06-21T09:27:36.838Z,140.63
2018-06-21T09:28:36.860Z,146.25
2018-06-21T09:29:36.884Z,151.88
2018-06-21T09:30:36.909Z,163.13
2018-06-21T09:31:36.937Z,174.38
2018-06-21T09:32:36.962Z,174.38
2018-06-21T09:33:36.986Z,168.75
2018-06-21T09:34:37.005Z,157.50
2018-06-21T09:35:37.029Z,151.88
2018-06-21T09:36:37.060Z,163.13
2018-06-21T09:37:37.084Z,174.38
2018-06-21T09:38:37.108Z,157.50
2018-06-21T09:39:37.133Z,129.38
2018-06-21T09:40:37.157Z,90.00
2018-06-21T09:41:37.182Z,84.38
2018-06-21T09:42:37.205Z,50.63
2018-06-21T09:43:37.414Z,56.25
2018-06-21T09:44:37.262Z,56.25
2018-06-21T09:45:37.275Z,33.75
2018-06-21T09:46:37.301Z,33.75
2018-06-21T09:47:37.323Z,45.00
2018-06-21T09:48:37.348Z,50.63
2018-06-21T09:49:37.379Z,50.63
2018-06-21T09:50:37.401Z,56.25
2018-06-21T09:51:37.423Z,56.25
2018-06-21T09:52:37.503Z,56.25
2018-06-21T09:53:37.475Z,50.63
2018-06-21T09:54:37.503Z,50.63
2018-06-21T09:55:37.522Z,50.63
2018-06-21T09:56:37.546Z,50.63
2018-06-21T09:57:37.590Z,50.63
2018-06-21T09:58:37.592Z,50.63
2018-06-21T09:59:37.620Z,50.63
2018-06-21T10:00:37.643Z,50.63
2018-06-21T10:01:37.667Z,50.63
2018-06-21T10:02:37.701Z,50.63
2018-06-21T10:03:37.741Z,50.63
2018-06-21T10:04:37.741Z,56.25
2018-06-21T10:05:37.768Z,56.25
2018-06-21T10:06:37.793Z,67.50
2018-06-21T10:07:37.810Z,67.50
2018-06-21T10:08:37.836Z,61.88
2018-06-21T10:09:37.864Z,67.50
2018-06-21T10:10:37.889Z,78.75
2018-06-21T10:11:37.921Z,84.38
2018-06-21T10:12:37.938Z,84.38
2018-06-21T10:13:37.962Z,95.63
2018-06-21T10:14:37.984Z,84.38
2018-06-21T10:15:38.048Z,84.38
2018-06-21T10:16:38.045Z,90.00
2018-06-21T10:17:38.055Z,101.25
2018-06-21T10:18:38.080Z,101.25
2018-06-21T10:19:38.102Z,95.63
2018-06-21T10:20:38.133Z,90.00
2018-06-21T10:21:38.154Z,90.00
2018-06-21T10:22:38.179Z,95.63
2018-06-21T10:23:38.196Z,101.25
2018-06-21T10:24:38.227Z,95.63
2018-06-21T10:25:38.261Z,90.00
2018-06-21T10:26:38.277Z,95.63
2018-06-21T10:27:38.300Z,112.50
2018-06-21T10:28:38.324Z,118.13
2018-06-21T10:29:38.344Z,90.00
2018-06-21T10:30:38.369Z,90.00
2018-06-21T10:31:38.400Z,129.38
2018-06-21T10:32:38.422Z,157.50
2018-06-21T10:33:38.450Z,157.50
2018-06-21T10:34:38.468Z,163.13
2018-06-21T10:35:38.490Z,151.88
2018-06-21T10:36:38.529Z,135.00
2018-06-21T10:37:38.542Z,118.13
2018-06-21T10:38:38.566Z,129.38
2018-06-21T10:39:38.590Z,157.50
2018-06-21T10:40:38.614Z,163.13
2018-06-21T10:41:38.644Z,163.13
2018-06-21T10:42:38.684Z,129.38
2018-06-21T10:43:38.692Z,140.63
2018-06-21T10:44:38.712Z,151.88
2018-06-21T10:45:38.748Z,118.13
2018-06-21T10:46:38.761Z,78.75
2018-06-21T10:47:38.794Z,101.25
2018-06-21T10:48:38.812Z,67.50
2018-06-21T10:49:38.835Z,50.63
2018-06-21T10:50:38.862Z,33.75
2018-06-21T10:51:38.881Z,28.13
2018-06-21T10:52:38.911Z,39.38
2018-06-21T10:53:38.935Z,45.00
2018-06-21T10:54:38.958Z,50.63
2018-06-21T10:55:38.977Z,78.75
2018-06-21T10:56:39.053Z,101.25
2018-06-21T10:57:39.036Z,112.50
2018-06-21T10:58:39.070Z,106.88
2018-06-21T10:59:39.080Z,118.13
2018-06-21T11:00:39.103Z,123.75
2018-06-21T11:01:39.124Z,135.00
2018-06-21T11:02:39.149Z,123.75
2018-06-21T11:03:39.177Z,140.63
2018-06-21T11:04:39.202Z,129.38
2018-06-21T11:05:39.221Z,135.00
2018-06-21T11:06:39.247Z,151.88
2018-06-21T11:07:39.274Z,146.25
2018-06-21T11:08:39.318Z,129.38
2018-06-21T11:09:39.320Z,112.50
2018-06-21T11:10:39.345Z,106.88
2018-06-21T11:11:39.367Z,101.25
2018-06-21T11:12:39.390Z,112.50
2018-06-21T11:13:39.419Z,106.88
2018-06-21T11:14:39.448Z,123.75
2018-06-21T11:15:39.540Z,129.38
2018-06-21T11:16:39.511Z,151.88
2018-06-21T11:17:39.512Z,151.88
2018-06-21T11:18:39.534Z,135.00
2018-06-21T11:19:39.572Z,135.00
2018-06-21T11:20:39.587Z,129.38
2018-06-21T11:21:40.611Z,106.88
2018-06-21T11:22:39.636Z,129.38
2018-06-21T11:23:39.661Z,123.75
2018-06-21T11:24:39.713Z,135.00
2018-06-21T11:25:39.708Z,129.38
2018-06-21T11:26:39.728Z,140.63
2018-06-21T11:27:40.660Z,146.25
2018-06-21T11:28:40.633Z,151.88
2018-06-21T11:29:39.804Z,146.25
2018-06-21T11:30:39.823Z,135.00
2018-06-21T11:31:39.871Z,118.13
2018-06-21T11:32:39.878Z,112.50
2018-06-21T11:33:39.909Z,140.63
2018-06-21T11:34:39.939Z,129.38
2018-06-21T11:35:39.950Z,129.38
2018-06-21T11:36:39.991Z,140.63
2018-06-21T11:37:40.016Z,112.50
2018-06-21T11:38:40.599Z,118.13
2018-06-21T11:39:40.598Z,106.88
2018-06-21T11:40:40.079Z,106.88
2018-06-21T11:41:40.116Z,106.88
2018-06-21T11:42:40.123Z,118.13
2018-06-21T11:43:40.239Z,118.13
2018-06-21T11:44:40.236Z,118.13
2018-06-21T11:45:40.215Z,106.88
2018-06-21T11:46:40.238Z,106.88
2018-06-21T11:47:40.252Z,101.25
2018-06-21T11:48:40.275Z,112.50
2018-06-21T11:49:40.301Z,112.50
2018-06-21T11:50:40.334Z,106.88
2018-06-21T11:51:40.356Z,123.75
2018-06-21T11:52:40.399Z,135.00
2018-06-21T11:53:40.399Z,140.63
2018-06-21T11:54:40.416Z,146.25
2018-06-21T11:55:40.441Z,135.00
2018-06-21T11:56:40.469Z,129.38
2018-06-21T11:57:40.482Z,129.38
2018-06-21T11:58:40.522Z,140.63
2018-06-21T11:59:40.532Z,135.00
2018-06-21T12:00:40.573Z,135.00
2018-06-21T12:01:40.604Z,140.63
2018-06-21T12:02:40.616Z,135.00
2018-06-21T12:03:40.671Z,129.38
2018-06-21T12:04:40.839Z,140.63
2018-06-21T12:05:40.850Z,140.63
2018-06-21T12:06:40.705Z,129.38
2018-06-21T12:07:40.785Z,140.63
2018-06-21T12:08:40.867Z,135.00
2018-06-21T12:09:40.978Z,140.63
2018-06-21T12:10:40.833Z,157.50
2018-06-21T12:11:40.857Z,151.88
2018-06-21T12:12:40.953Z,151.88
2018-06-21T12:13:41.065Z,140.63
2018-06-21T12:14:40.934Z,146.25
2018-06-21T12:15:41.171Z,157.50
2018-06-21T12:16:40.999Z,146.25
2018-06-21T12:17:41.083Z,135.00
2018-06-21T12:18:41.093Z,129.38
2018-06-21T12:19:41.098Z,118.13
2018-06-21T12:20:41.216Z,118.13
2018-06-21T12:21:41.074Z,118.13
2018-06-21T12:22:41.325Z,123.75
2018-06-21T12:23:41.243Z,123.75
2018-06-21T12:24:41.309Z,118.13
2018-06-21T12:25:41.268Z,106.88
2018-06-21T12:26:41.336Z,106.88
2018-06-21T12:27:41.285Z,95.63
2018-06-21T12:28:41.467Z,84.38
2018-06-21T12:29:41.425Z,101.25
2018-06-21T12:30:41.427Z,106.88
2018-06-21T12:31:41.345Z,101.25
2018-06-21T12:32:41.537Z,112.50
2018-06-21T12:33:41.459Z,112.50
2018-06-21T12:34:41.772Z,118.13
2018-06-21T12:35:41.578Z,118.13
2018-06-21T12:36:41.511Z,129.38
2018-06-21T12:37:41.495Z,135.00
2018-06-21T12:38:41.568Z,135.00
2018-06-21T12:39:41.544Z,146.25
2018-06-21T12:40:41.627Z,146.25
2018-06-21T12:41:41.629Z,140.63
2018-06-21T12:42:41.601Z,140.63
2018-06-21T12:43:41.690Z,135.00
2018-06-21T12:44:41.905Z,140.63
2018-06-21T12:45:41.711Z,135.00
2018-06-21T12:46:41.894Z,118.13
2018-06-21T12:47:41.761Z,118.13
2018-06-21T12:48:41.753Z,106.88
2018-06-21T12:49:41.875Z,84.38
2018-06-21T12:50:41.789Z,73.13
2018-06-21T12:51:41.822Z,90.00
2018-06-21T12:52:41.908Z,90.00
2018-06-21T12:53:41.988Z,84.38
2018-06-21T12:54:42.069Z,84.38